首页
METAR-TAF:

METAR-TAF

机场 :

平壤順安國際機場

平壤, 朝鲜民主主义人民共和国

纬度: 39-02N, 经度: 125-47E, 海拔: 36米

METAR: 丢失

时间: 06:42 (22:12 UTC)

预报

该预报发布于18小时和22分钟前的03:50 UTC
预报有效从15日的 06点(UTC)到 16日的 06点(UTC)
风速8节,风向
能見度: 3000
阴天层高于1700英尺
轻雾
短暂存在
从 15日的 06点(UTC)到 15日的 10点(UTC)
能見度: 1000
散云层高于1000英尺
多云层高于2000英尺
小雪
成为
从 15日的 08点(UTC)到 15日的 10点(UTC)
风速10节,风向西北

TAF: ZKPY 150350Z 1506/1606 17004MPS 3000 BR OVC017 TEMPO 1506/1510 1000 -SN SCT010 BKN020 TX00/1507Z TNM09/1522Z BECMG 1508/1510 32005MPS

超过4000个机场的气象观测和天气预报(METAR&TAF报告)。

可查询的气象台以黄色和红色小点在地图上表示。

将鼠标移到小点上方,可查看气象台名称。

然后点击查看天气观测和预报。

如需切换地图:点击带黑十字的绿色按钮放大地图;点击带横线的绿色按钮缩小地图;或者点击绿色箭头查看邻近地区的地图。


METAR-TAF: